createdAt,value
2022-12-31T00:05:14.767Z,16.31
2022-12-31T00:15:16.166Z,16.32
2022-12-31T00:25:17.724Z,16.33
2022-12-31T00:35:19.238Z,16.34
2022-12-31T00:45:20.796Z,16.35
2022-12-31T00:55:22.251Z,16.37
2022-12-31T01:05:23.847Z,16.37
2022-12-31T01:15:25.418Z,16.37
2022-12-31T01:25:26.939Z,16.39
2022-12-31T01:35:28.452Z,16.39
2022-12-31T01:45:29.818Z,16.40
2022-12-31T01:55:57.343Z,16.42
2022-12-31T02:06:14.460Z,16.43
2022-12-31T02:16:23.871Z,16.43
2022-12-31T02:26:31.210Z,16.45
2022-12-31T02:36:34.606Z,16.44
2022-12-31T02:46:42.591Z,16.46
2022-12-31T02:56:59.133Z,16.46
2022-12-31T03:07:11.040Z,16.47
2022-12-31T03:17:12.427Z,16.48
2022-12-31T03:27:13.945Z,16.49
2022-12-31T03:37:15.464Z,16.48
2022-12-31T03:47:17.024Z,16.49
2022-12-31T03:57:18.565Z,16.51
2022-12-31T04:07:20.098Z,16.49
2022-12-31T04:17:21.629Z,16.49
2022-12-31T04:27:23.008Z,16.49
2022-12-31T04:37:24.523Z,16.48
2022-12-31T04:47:26.074Z,16.50
2022-12-31T04:57:27.624Z,16.50
2022-12-31T05:07:29.015Z,16.49
2022-12-31T05:17:30.402Z,16.59
2022-12-31T05:27:31.931Z,16.79
2022-12-31T05:37:33.407Z,16.95
2022-12-31T05:47:34.807Z,17.18
2022-12-31T05:57:36.213Z,17.46
2022-12-31T06:07:37.579Z,17.66
2022-12-31T06:17:38.995Z,17.81
2022-12-31T06:27:40.387Z,17.93
2022-12-31T06:37:41.838Z,17.98
2022-12-31T06:47:43.244Z,18.00
2022-12-31T06:57:44.761Z,17.99
2022-12-31T07:08:16.607Z,18.01
2022-12-31T07:19:13.754Z,18.09
2022-12-31T07:29:53.779Z,18.19
2022-12-31T07:40:17.086Z,18.24
2022-12-31T07:50:18.998Z,18.26
2022-12-31T08:00:20.778Z,18.26
2022-12-31T08:10:48.485Z,18.27
2022-12-31T08:21:04.987Z,18.32
2022-12-31T08:31:31.493Z,18.42
2022-12-31T08:41:42.859Z,18.48
2022-12-31T08:51:44.966Z,18.51
2022-12-31T09:02:21.747Z,18.52
2022-12-31T09:12:28.744Z,18.55
2022-12-31T09:22:30.433Z,18.58
2022-12-31T09:33:08.920Z,18.65
2022-12-31T09:43:14.770Z,18.71
2022-12-31T09:53:34.402Z,18.74
2022-12-31T10:03:57.086Z,18.75
2022-12-31T10:14:22.921Z,18.77
2022-12-31T10:24:45.893Z,18.79
2022-12-31T10:34:54.490Z,18.83
2022-12-31T10:44:55.842Z,18.87
2022-12-31T10:55:34.491Z,18.91
2022-12-31T11:05:54.101Z,18.95
2022-12-31T11:16:29.483Z,18.93
2022-12-31T11:26:50.080Z,18.94
2022-12-31T11:37:08.833Z,18.95
2022-12-31T11:47:28.911Z,18.97
2022-12-31T11:57:30.133Z,19.00
2022-12-31T12:07:31.839Z,19.02
2022-12-31T12:17:34.209Z,19.03
2022-12-31T12:27:36.076Z,19.03
2022-12-31T12:37:37.489Z,19.06
2022-12-31T12:47:41.273Z,19.06
2022-12-31T12:57:53.324Z,19.09
2022-12-31T13:08:19.383Z,19.09
2022-12-31T13:18:51.958Z,19.08
2022-12-31T13:28:54.691Z,19.07
2022-12-31T13:38:58.048Z,19.05
2022-12-31T13:49:04.908Z,19.03
2022-12-31T13:59:20.119Z,19.00
2022-12-31T14:09:32.642Z,18.95
2022-12-31T14:20:24.304Z,18.91
2022-12-31T14:30:27.967Z,18.86
2022-12-31T14:41:06.718Z,18.83
2022-12-31T14:51:08.283Z,18.80
2022-12-31T15:01:15.693Z,18.76
2022-12-31T15:11:20.018Z,18.71
2022-12-31T15:21:39.589Z,18.68
2022-12-31T15:31:44.955Z,18.62
2022-12-31T15:42:18.631Z,18.61
2022-12-31T15:52:20.606Z,18.54
2022-12-31T16:02:24.282Z,18.50
2022-12-31T16:12:32.750Z,18.52
2022-12-31T16:22:37.864Z,18.50
2022-12-31T16:32:39.251Z,18.46
2022-12-31T16:42:44.241Z,18.43
2022-12-31T16:52:47.308Z,18.41
2022-12-31T17:02:56.073Z,18.39
2022-12-31T17:23:28.998Z,18.31
2022-12-31T17:33:30.728Z,18.28
2022-12-31T17:43:36.830Z,18.23
2022-12-31T17:53:38.375Z,18.21
2022-12-31T18:03:39.800Z,18.21
2022-12-31T18:13:41.200Z,18.17
2022-12-31T18:23:46.109Z,18.08
2022-12-31T18:33:47.981Z,18.08
2022-12-31T18:43:49.890Z,18.04
2022-12-31T18:53:51.418Z,18.06
2022-12-31T19:04:03.474Z,18.01
2022-12-31T19:14:22.924Z,18.01
2022-12-31T19:24:26.401Z,17.97
2022-12-31T19:34:27.927Z,17.94
2022-12-31T19:44:29.464Z,17.96
2022-12-31T19:54:31.007Z,17.94
2022-12-31T20:04:32.524Z,17.93
2022-12-31T20:14:33.974Z,17.96
2022-12-31T20:24:35.354Z,17.93
2022-12-31T20:34:36.761Z,17.90
2022-12-31T20:44:38.183Z,17.89
2022-12-31T20:54:39.750Z,17.89
2022-12-31T21:04:41.350Z,17.91
2022-12-31T21:14:44.879Z,17.93
2022-12-31T21:24:46.482Z,17.97
2022-12-31T21:35:06.437Z,17.97
2022-12-31T21:45:10.290Z,17.96
2022-12-31T21:55:30.429Z,17.93
2022-12-31T22:05:31.939Z,17.92
2022-12-31T22:15:33.374Z,17.90
2022-12-31T22:25:35.393Z,17.89
2022-12-31T22:35:36.778Z,17.88
2022-12-31T22:45:38.161Z,17.88
2022-12-31T22:55:39.552Z,17.88
2022-12-31T23:05:41.495Z,17.80
2022-12-31T23:16:03.589Z,17.80
2022-12-31T23:26:06.765Z,17.77
2022-12-31T23:36:08.433Z,17.77
2022-12-31T23:46:10.241Z,17.79
2022-12-31T23:56:23.294Z,17.79
